Nearby METAR Reports

 

EGTE - Exeter Airport, United Kingdom
Distance from station: S 19km
Updated: 26/10/2021 02:20
NOT Current
Few Clouds
Few Clouds
 Wind from SSW
Wind: SSW 9 km/h
Temperature: 10°C
Wind Chill: 9°C
Dew Point: 9°C
Humidity: 94%
Barometer: 1018 hPa
Clouds: Few Clouds
Visibility: 10 km
Cloud details: Few Clouds 762 m
2021/10/26 01:20 EGTE 260120Z 20005KT 9999 FEW025 10/09 Q1018
EGDY - Yeovilton (navy), United Kingdom
Distance from station: ENE 55km
Updated: 26/10/2021 09:18
Mostly cloudy
Mostly cloudy
 Wind from SSW
Wind: SSW 17 km/h
Temperature: 14°C
Dew Point: 13°C
Humidity: 94%
Barometer: 1018 hPa
Clouds: Mostly cloudy
Visibility: 10 km
Cloud details: Few Clouds 610 m
Partly cloudy 1219 m
Mostly cloudy 2438 m
2021/10/26 08:18 EGDY 260818Z 20009KT 9999 FEW020 SCT040 BKN080 14/13 Q1018 TEMPO 4000 -RADZ SCT012 RMK BLU TEMPO GRN
 
EGFF - Cardiff-Wales Ar, United Kingdom
Distance from station: N 56km
Updated: 26/10/2021 09:20
Mostly cloudy
Mostly cloudy
 Wind from WSW
Wind: WSW 17 km/h
Temperature: 14°C
Dew Point: 13°C
Humidity: 94%
Barometer: 1016 hPa
Clouds: Mostly cloudy
Visibility: 10 km
Cloud details: Partly cloudy 427 m
Mostly cloudy 701 m
2021/10/26 08:20 EGFF 260820Z AUTO 25009KT 9999 SCT014 BKN023 14/13 Q1016
EGDX - St Athan Raf, United Kingdom
Distance from station: N 58km
Updated: 01/04/2019 13:50
NOT Current
Clear
Clear
 Wind from E
Wind: E 15 km/h
Temperature: 11°C
Dew Point: 5°C
Humidity: 67%
Barometer: 1019 hPa
Clouds: Clear
Visibility: 10 km
2019/04/01 12:50 EGDX 011250Z AUTO 10008KT 9999 NCD 11/05 Q1019
 
EGGD - Bristol/Lulsgate, United Kingdom
Distance from station: NE 71km
Updated: 26/10/2021 09:20
Mostly cloudy
Mostly cloudy
 Wind from SSW
Wind: SSW 13 km/h
Temperature: 11°C
Dew Point: 10°C
Humidity: 94%
Barometer: 1017 hPa
Clouds: Mostly cloudy
Visibility: 10 km
Cloud details: Mostly cloudy 274 m
Mostly cloudy 396 m
2021/10/26 08:20 EGGD 260820Z AUTO 20007KT 160V230 9999 BKN009 BKN013 11/10 Q1017